sensor_id;sensor_type;location;lat;lon;timestamp;pressure;altitude;pressure_sealevel;temperature;humidity
60061;BME280;45933;51.336;12.612;2022-11-13T00:00:56;101256.03;;;8.29;56.97
60061;BME280;45933;51.336;12.612;2022-11-13T00:03:23;101258.53;;;8.26;57.29
60061;BME280;45933;51.336;12.612;2022-11-13T00:05:57;101262.94;;;8.29;57.28
60061;BME280;45933;51.336;12.612;2022-11-13T00:08:22;101257.63;;;8.23;57.30
60061;BME280;45933;51.336;12.612;2022-11-13T00:10:48;101252.34;;;8.20;57.23
60061;BME280;45933;51.336;12.612;2022-11-13T00:13:13;101245.41;;;8.19;57.97
60061;BME280;45933;51.336;12.612;2022-11-13T00:15:38;101253.19;;;8.19;57.76
60061;BME280;45933;51.336;12.612;2022-11-13T00:18:04;101244.44;;;8.15;57.68
60061;BME280;45933;51.336;12.612;2022-11-13T00:20:29;101242.72;;;8.16;57.96
60061;BME280;45933;51.336;12.612;2022-11-13T00:22:54;101240.97;;;8.15;57.92
60061;BME280;45933;51.336;12.612;2022-11-13T00:25:20;101236.63;;;8.13;57.95
60061;BME280;45933;51.336;12.612;2022-11-13T00:27:45;101234.00;;;8.12;57.70
60061;BME280;45933;51.336;12.612;2022-11-13T00:30:11;101227.88;;;8.10;57.97
60061;BME280;45933;51.336;12.612;2022-11-13T00:32:36;101231.31;;;8.09;58.05
60061;BME280;45933;51.336;12.612;2022-11-13T00:35:02;101221.72;;;8.06;58.36
60061;BME280;45933;51.336;12.612;2022-11-13T00:37:28;101226.03;;;8.04;57.53
60061;BME280;45933;51.336;12.612;2022-11-13T00:39:53;101219.09;;;8.05;57.89
60061;BME280;45933;51.336;12.612;2022-11-13T00:42:19;101219.94;;;8.02;57.59
60061;BME280;45933;51.336;12.612;2022-11-13T00:44:44;101223.34;;;8.01;57.68
60061;BME280;45933;51.336;12.612;2022-11-13T00:47:09;101219.84;;;7.99;57.58
60061;BME280;45933;51.336;12.612;2022-11-13T00:49:35;101225.03;;;7.99;57.17
60061;BME280;45933;51.336;12.612;2022-11-13T00:52:00;101216.34;;;7.97;57.44
60061;BME280;45933;51.336;12.612;2022-11-13T00:54:27;101225.81;;;7.95;57.89
60061;BME280;45933;51.336;12.612;2022-11-13T00:56:52;101222.34;;;7.95;57.33
60061;BME280;45933;51.336;12.612;2022-11-13T00:59:17;101216.22;;;7.91;57.00
60061;BME280;45933;51.336;12.612;2022-11-13T01:01:43;101217.09;;;7.92;57.24
60061;BME280;45933;51.336;12.612;2022-11-13T01:04:08;101219.56;;;7.87;57.29
60061;BME280;45933;51.336;12.612;2022-11-13T01:06:33;101215.16;;;7.84;57.13
60061;BME280;45933;51.336;12.612;2022-11-13T01:08:59;101217.75;;;7.84;57.43
60061;BME280;45933;51.336;12.612;2022-11-13T01:11:28;101215.22;;;7.86;57.37
60061;BME280;45933;51.336;12.612;2022-11-13T01:13:54;101215.91;;;7.79;56.94
60061;BME280;45933;51.336;12.612;2022-11-13T01:16:22;101214.13;;;7.76;57.25
60061;BME280;45933;51.336;12.612;2022-11-13T01:18:48;101207.88;;;7.70;57.09
60061;BME280;45933;51.336;12.612;2022-11-13T01:21:21;101211.34;;;7.69;57.10
60061;BME280;45933;51.336;12.612;2022-11-13T01:23:47;101209.47;;;7.63;56.31
60061;BME280;45933;51.336;12.612;2022-11-13T01:28:40;101215.28;;;7.53;56.70
60061;BME280;45933;51.336;12.612;2022-11-13T01:31:08;101212.56;;;7.48;56.59
60061;BME280;45933;51.336;12.612;2022-11-13T01:33:33;101211.56;;;7.43;56.43
60061;BME280;45933;51.336;12.612;2022-11-13T01:36:12;101219.44;;;7.46;55.95
60061;BME280;45933;51.336;12.612;2022-11-13T01:38:38;101220.00;;;7.34;56.36
60061;BME280;45933;51.336;12.612;2022-11-13T01:41:05;101217.28;;;7.30;56.65
60061;BME280;45933;51.336;12.612;2022-11-13T01:43:36;101214.59;;;7.27;56.57
60061;BME280;45933;51.336;12.612;2022-11-13T01:46:11;101210.25;;;7.26;56.35
60061;BME280;45933;51.336;12.612;2022-11-13T01:48:41;101202.34;;;7.20;56.36
60061;BME280;45933;51.336;12.612;2022-11-13T01:51:21;101202.25;;;7.17;56.05
60061;BME280;45933;51.336;12.612;2022-11-13T01:53:48;101197.75;;;7.10;55.82
60061;BME280;45933;51.336;12.612;2022-11-13T01:56:15;101193.31;;;7.05;56.41
60061;BME280;45933;51.336;12.612;2022-11-13T01:58:43;101188.91;;;7.01;56.06
60061;BME280;45933;51.336;12.612;2022-11-13T02:01:10;101188.69;;;6.94;55.91
60061;BME280;45933;51.336;12.612;2022-11-13T02:03:35;101179.06;;;6.90;55.61
60061;BME280;45933;51.336;12.612;2022-11-13T02:06:01;101179.00;;;6.87;56.40
60061;BME280;45933;51.336;12.612;2022-11-13T02:08:26;101176.28;;;6.82;56.57
60061;BME280;45933;51.336;12.612;2022-11-13T02:10:52;101171.84;;;6.78;56.43
60061;BME280;45933;51.336;12.612;2022-11-13T02:13:19;101168.28;;;6.74;56.23
60061;BME280;45933;51.336;12.612;2022-11-13T02:15:46;101166.41;;;6.69;56.27
60061;BME280;45933;51.336;12.612;2022-11-13T02:18:13;101168.91;;;6.66;56.70
60061;BME280;45933;51.336;12.612;2022-11-13T02:20:46;101176.69;;;6.66;56.13
60061;BME280;45933;51.336;12.612;2022-11-13T02:26:09;101180.75;;;6.56;56.51
60061;BME280;45933;51.336;12.612;2022-11-13T02:28:36;101184.06;;;6.52;56.99
60061;BME280;45933;51.336;12.612;2022-11-13T02:31:06;101182.41;;;6.54;56.29
60061;BME280;45933;51.336;12.612;2022-11-13T02:33:32;101183.09;;;6.48;57.04
60061;BME280;45933;51.336;12.612;2022-11-13T02:35:57;101182.13;;;6.43;56.91
60061;BME280;45933;51.336;12.612;2022-11-13T02:38:23;101184.59;;;6.40;57.05
60061;BME280;45933;51.336;12.612;2022-11-13T02:40:48;101185.44;;;6.39;56.64
60061;BME280;45933;51.336;12.612;2022-11-13T02:43:14;101186.22;;;6.37;56.82
60061;BME280;45933;51.336;12.612;2022-11-13T02:45:39;101181.00;;;6.35;57.36
60061;BME280;45933;51.336;12.612;2022-11-13T02:48:05;101186.16;;;6.34;57.34
60061;BME280;45933;51.336;12.612;2022-11-13T02:50:32;101186.88;;;6.29;58.00
60061;BME280;45933;51.336;12.612;2022-11-13T02:52:57;101180.78;;;6.27;57.51
60061;BME280;45933;51.336;12.612;2022-11-13T02:55:23;101174.81;;;6.30;58.15
60061;BME280;45933;51.336;12.612;2022-11-13T02:57:48;101171.31;;;6.28;58.39
60061;BME280;45933;51.336;12.612;2022-11-13T03:00:14;101166.91;;;6.25;57.92
60061;BME280;45933;51.336;12.612;2022-11-13T03:02:40;101161.69;;;6.24;58.11
60061;BME280;45933;51.336;12.612;2022-11-13T03:05:06;101161.66;;;6.22;58.44
60061;BME280;45933;51.336;12.612;2022-11-13T03:07:31;101160.75;;;6.22;58.31
60061;BME280;45933;51.336;12.612;2022-11-13T03:09:56;101157.28;;;6.21;58.32
60061;BME280;45933;51.336;12.612;2022-11-13T03:12:22;101156.34;;;6.18;58.20
60061;BME280;45933;51.336;12.612;2022-11-13T03:14:47;101156.38;;;6.19;58.43
60061;BME280;45933;51.336;12.612;2022-11-13T03:17:13;101157.22;;;6.18;57.83
60061;BME280;45933;51.336;12.612;2022-11-13T03:19:38;101158.84;;;6.16;58.08
60061;BME280;45933;51.336;12.612;2022-11-13T03:22:03;101156.22;;;6.15;57.84
60061;BME280;45933;51.336;12.612;2022-11-13T03:24:29;101161.34;;;6.12;58.00
60061;BME280;45933;51.336;12.612;2022-11-13T03:26:54;101154.38;;;6.11;57.97
60061;BME280;45933;51.336;12.612;2022-11-13T03:29:19;101149.13;;;6.08;57.63
60061;BME280;45933;51.336;12.612;2022-11-13T03:31:45;101160.25;;;6.05;57.79
60061;BME280;45933;51.336;12.612;2022-11-13T03:34:10;101151.63;;;6.05;57.98
60061;BME280;45933;51.336;12.612;2022-11-13T03:36:35;101163.56;;;6.01;58.02
60061;BME280;45933;51.336;12.612;2022-11-13T03:39:01;101165.25;;;5.99;57.94
60061;BME280;45933;51.336;12.612;2022-11-13T03:41:26;101154.00;;;5.97;57.54
60061;BME280;45933;51.336;12.612;2022-11-13T03:43:51;101152.16;;;5.94;57.98
60061;BME280;45933;51.336;12.612;2022-11-13T03:46:17;101148.53;;;5.89;58.18
60061;BME280;45933;51.336;12.612;2022-11-13T03:48:42;101140.69;;;5.86;57.91
60061;BME280;45933;51.336;12.612;2022-11-13T03:51:08;101138.88;;;5.84;57.92
60061;BME280;45933;51.336;12.612;2022-11-13T03:53:33;101135.38;;;5.82;57.96
60061;BME280;45933;51.336;12.612;2022-11-13T03:55:58;101140.56;;;5.82;58.00
60061;BME280;45933;51.336;12.612;2022-11-13T03:58:24;101132.69;;;5.78;57.97
60061;BME280;45933;51.336;12.612;2022-11-13T04:00:49;101133.47;;;5.76;57.88
60061;BME280;45933;51.336;12.612;2022-11-13T04:03:15;101138.59;;;5.74;57.94
60061;BME280;45933;51.336;12.612;2022-11-13T04:05:41;101141.94;;;5.70;57.62
60061;BME280;45933;51.336;12.612;2022-11-13T04:08:07;101128.03;;;5.67;57.88
60061;BME280;45933;51.336;12.612;2022-11-13T04:10:32;101129.59;;;5.62;58.23
60061;BME280;45933;51.336;12.612;2022-11-13T04:12:58;101123.50;;;5.60;58.15
60061;BME280;45933;51.336;12.612;2022-11-13T04:15:23;101131.16;;;5.57;57.96
60061;BME280;45933;51.336;12.612;2022-11-13T04:17:49;101129.28;;;5.53;58.21
60061;BME280;45933;51.336;12.612;2022-11-13T04:20:14;101127.47;;;5.48;58.11
60061;BME280;45933;51.336;12.612;2022-11-13T04:22:40;101123.94;;;5.46;58.12
60061;BME280;45933;51.336;12.612;2022-11-13T04:25:06;101115.19;;;5.43;58.08
60061;BME280;45933;51.336;12.612;2022-11-13T04:27:31;101120.28;;;5.40;57.63
60061;BME280;45933;51.336;12.612;2022-11-13T04:29:57;101114.13;;;5.36;58.17
60061;BME280;45933;51.336;12.612;2022-11-13T04:32:22;101118.41;;;5.36;57.88
60061;BME280;45933;51.336;12.612;2022-11-13T04:34:48;101122.66;;;5.34;57.97
60061;BME280;45933;51.336;12.612;2022-11-13T04:37:13;101114.75;;;5.29;57.95
60061;BME280;45933;51.336;12.612;2022-11-13T04:39:38;101112.13;;;5.28;57.78
60061;BME280;45933;51.336;12.612;2022-11-13T04:42:04;101110.31;;;5.25;58.37
60061;BME280;45933;51.336;12.612;2022-11-13T04:44:48;101110.16;;;5.20;58.46
60061;BME280;45933;51.336;12.612;2022-11-13T04:47:13;101106.75;;;5.21;58.37
60061;BME280;45933;51.336;12.612;2022-11-13T04:49:38;101098.94;;;5.20;58.54
60061;BME280;45933;51.336;12.612;2022-11-13T04:52:04;101098.91;;;5.18;58.58
60061;BME280;45933;51.336;12.612;2022-11-13T04:54:29;101099.75;;;5.17;58.83
60061;BME280;45933;51.336;12.612;2022-11-13T04:56:55;101088.47;;;5.15;58.46
60061;BME280;45933;51.336;12.612;2022-11-13T04:59:20;101100.53;;;5.16;58.86
60061;BME280;45933;51.336;12.612;2022-11-13T05:01:45;101085.03;;;5.16;58.59
60061;BME280;45933;51.336;12.612;2022-11-13T05:04:12;101089.34;;;5.16;58.51
60061;BME280;45933;51.336;12.612;2022-11-13T05:06:38;101093.59;;;5.14;59.09
60061;BME280;45933;51.336;12.612;2022-11-13T05:09:04;101096.22;;;5.15;59.21
60061;BME280;45933;51.336;12.612;2022-11-13T05:11:29;101088.41;;;5.14;58.80
60061;BME280;45933;51.336;12.612;2022-11-13T05:13:54;101094.47;;;5.14;59.09
60061;BME280;45933;51.336;12.612;2022-11-13T05:16:20;101091.03;;;5.15;59.03
60061;BME280;45933;51.336;12.612;2022-11-13T05:18:45;101092.75;;;5.15;59.34
60061;BME280;45933;51.336;12.612;2022-11-13T05:21:11;101085.03;;;5.16;59.58
60061;BME280;45933;51.336;12.612;2022-11-13T05:23:36;101090.22;;;5.16;59.35
60061;BME280;45933;51.336;12.612;2022-11-13T05:26:10;101079.09;;;5.19;59.22
60061;BME280;45933;51.336;12.612;2022-11-13T05:28:36;101091.03;;;5.15;59.88
60061;BME280;45933;51.336;12.612;2022-11-13T05:31:10;101090.34;;;5.21;59.21
60061;BME280;45933;51.336;12.612;2022-11-13T05:33:37;101091.13;;;5.17;59.71
60061;BME280;45933;51.336;12.612;2022-11-13T05:36:05;101091.19;;;5.20;59.72
60061;BME280;45933;51.336;12.612;2022-11-13T05:38:31;101085.94;;;5.17;59.21
60061;BME280;45933;51.336;12.612;2022-11-13T05:41:13;101100.00;;;5.27;59.25
60061;BME280;45933;51.336;12.612;2022-11-13T05:43:40;101105.00;;;5.20;59.42
60061;BME280;45933;51.336;12.612;2022-11-13T05:46:31;101108.56;;;5.24;59.21
60061;BME280;45933;51.336;12.612;2022-11-13T05:48:58;101106.03;;;5.25;59.96
60061;BME280;45933;51.336;12.612;2022-11-13T05:51:26;101105.09;;;5.23;59.69
60061;BME280;45933;51.336;12.612;2022-11-13T05:53:52;101100.78;;;5.22;59.23
60061;BME280;45933;51.336;12.612;2022-11-13T05:56:21;101105.16;;;5.25;59.72
60061;BME280;45933;51.336;12.612;2022-11-13T05:58:48;101104.16;;;5.21;59.98
60061;BME280;45933;51.336;12.612;2022-11-13T06:01:25;101095.72;;;5.27;59.88
60061;BME280;45933;51.336;12.612;2022-11-13T06:03:51;101100.69;;;5.21;60.16
60061;BME280;45933;51.336;12.612;2022-11-13T06:06:18;101088.66;;;5.21;59.42
60061;BME280;45933;51.336;12.612;2022-11-13T06:08:44;101088.59;;;5.20;60.00
60061;BME280;45933;51.336;12.612;2022-11-13T06:11:12;101087.78;;;5.21;60.24
60061;BME280;45933;51.336;12.612;2022-11-13T06:13:38;101091.19;;;5.20;60.13
60061;BME280;45933;51.336;12.612;2022-11-13T06:16:12;101091.34;;;5.24;60.08
60061;BME280;45933;51.336;12.612;2022-11-13T06:18:40;101093.88;;;5.23;60.56
60061;BME280;45933;51.336;12.612;2022-11-13T06:21:14;101094.91;;;5.28;60.48
60061;BME280;45933;51.336;12.612;2022-11-13T06:23:39;101087.94;;;5.25;60.49
60061;BME280;45933;51.336;12.612;2022-11-13T06:26:13;101094.03;;;5.28;60.68
60061;BME280;45933;51.336;12.612;2022-11-13T06:28:38;101090.50;;;5.25;61.10
60061;BME280;45933;51.336;12.612;2022-11-13T06:31:06;101093.22;;;5.29;61.45
60061;BME280;45933;51.336;12.612;2022-11-13T06:33:32;101085.44;;;5.29;61.18
60061;BME280;45933;51.336;12.612;2022-11-13T06:36:03;101076.03;;;5.31;61.22
60061;BME280;45933;51.336;12.612;2022-11-13T06:38:33;101082.19;;;5.34;61.17
60061;BME280;45933;51.336;12.612;2022-11-13T06:40:59;101080.47;;;5.35;61.34
60061;BME280;45933;51.336;12.612;2022-11-13T06:43:25;101075.28;;;5.35;61.85
60061;BME280;45933;51.336;12.612;2022-11-13T06:45:52;101079.63;;;5.36;61.42
60061;BME280;45933;51.336;12.612;2022-11-13T06:48:17;101071.97;;;5.39;62.15
60061;BME280;45933;51.336;12.612;2022-11-13T06:50:43;101072.91;;;5.41;61.84
60061;BME280;45933;51.336;12.612;2022-11-13T06:53:08;101064.41;;;5.45;62.10
60061;BME280;45933;51.336;12.612;2022-11-13T06:55:33;101062.75;;;5.47;61.85
60061;BME280;45933;51.336;12.612;2022-11-13T06:57:58;101069.81;;;5.53;62.16
60061;BME280;45933;51.336;12.612;2022-11-13T07:00:24;101056.97;;;5.56;61.78
60061;BME280;45933;51.336;12.612;2022-11-13T07:02:49;101057.00;;;5.57;61.98
60061;BME280;45933;51.336;12.612;2022-11-13T07:05:15;101055.31;;;5.58;62.16
60061;BME280;45933;51.336;12.612;2022-11-13T07:07:41;101051.16;;;5.63;62.55
60061;BME280;45933;51.336;12.612;2022-11-13T07:10:06;101051.25;;;5.66;62.29
60061;BME280;45933;51.336;12.612;2022-11-13T07:12:32;101054.78;;;5.69;62.12
60061;BME280;45933;51.336;12.612;2022-11-13T07:14:57;101055.75;;;5.73;62.38
60061;BME280;45933;51.336;12.612;2022-11-13T07:17:23;101053.22;;;5.74;62.68
60061;BME280;45933;51.336;12.612;2022-11-13T07:19:48;101058.53;;;5.79;62.80
60061;BME280;45933;51.336;12.612;2022-11-13T07:22:13;101057.75;;;5.82;62.48
60061;BME280;45933;51.336;12.612;2022-11-13T07:24:39;101058.69;;;5.85;62.73
60061;BME280;45933;51.336;12.612;2022-11-13T07:27:04;101065.69;;;5.88;63.00
60061;BME280;45933;51.336;12.612;2022-11-13T07:29:30;101070.06;;;5.90;62.94
60061;BME280;45933;51.336;12.612;2022-11-13T07:31:55;101060.75;;;5.95;62.95
60061;BME280;45933;51.336;12.612;2022-11-13T07:34:20;101066.88;;;5.97;63.39
60061;BME280;45933;51.336;12.612;2022-11-13T07:36:46;101056.59;;;6.00;62.71
60061;BME280;45933;51.336;12.612;2022-11-13T07:39:11;101066.03;;;5.98;63.13
60061;BME280;45933;51.336;12.612;2022-11-13T07:41:36;101054.13;;;6.05;62.86
60061;BME280;45933;51.336;12.612;2022-11-13T07:44:02;101049.94;;;6.09;63.19
60061;BME280;45933;51.336;12.612;2022-11-13T07:46:27;101047.38;;;6.10;62.97
60061;BME280;45933;51.336;12.612;2022-11-13T07:48:52;101046.53;;;6.11;63.28
60061;BME280;45933;51.336;12.612;2022-11-13T07:51:17;101047.50;;;6.15;63.10
60061;BME280;45933;51.336;12.612;2022-11-13T07:53:43;101047.53;;;6.16;63.18
60061;BME280;45933;51.336;12.612;2022-11-13T07:56:08;101051.91;;;6.17;63.25
60061;BME280;45933;51.336;12.612;2022-11-13T07:58:33;101048.41;;;6.17;63.70
60061;BME280;45933;51.336;12.612;2022-11-13T08:01:03;101039.19;;;6.26;62.80
60061;BME280;45933;51.336;12.612;2022-11-13T08:03:29;101044.44;;;6.28;63.11
60061;BME280;45933;51.336;12.612;2022-11-13T08:05:59;101040.28;;;6.35;63.28
60061;BME280;45933;51.336;12.612;2022-11-13T08:08:25;101034.16;;;6.33;63.42
60061;BME280;45933;51.336;12.612;2022-11-13T08:10:51;101035.94;;;6.34;63.55
60061;BME280;45933;51.336;12.612;2022-11-13T08:13:16;101033.53;;;6.41;63.49
60061;BME280;45933;51.336;12.612;2022-11-13T08:15:42;101045.66;;;6.42;63.83
60061;BME280;45933;51.336;12.612;2022-11-13T08:18:07;101038.84;;;6.46;63.20
60061;BME280;45933;51.336;12.612;2022-11-13T08:20:33;101044.03;;;6.46;63.39
60061;BME280;45933;51.336;12.612;2022-11-13T08:22:59;101045.88;;;6.50;63.19
60061;BME280;45933;51.336;12.612;2022-11-13T08:25:25;101051.13;;;6.53;63.15
60061;BME280;45933;51.336;12.612;2022-11-13T08:27:52;101053.81;;;6.56;63.63
60061;BME280;45933;51.336;12.612;2022-11-13T08:30:19;101053.91;;;6.59;63.64
60061;BME280;45933;51.336;12.612;2022-11-13T08:32:46;101049.69;;;6.64;63.29
60061;BME280;45933;51.336;12.612;2022-11-13T08:35:11;101056.69;;;6.68;62.87
60061;BME280;45933;51.336;12.612;2022-11-13T08:37:37;101063.63;;;6.69;63.22
60061;BME280;45933;51.336;12.612;2022-11-13T08:40:02;101065.44;;;6.72;62.94
60061;BME280;45933;51.336;12.612;2022-11-13T08:42:28;101070.66;;;6.73;62.57
60061;BME280;45933;51.336;12.612;2022-11-13T08:44:53;101061.25;;;6.77;62.52
60061;BME280;45933;51.336;12.612;2022-11-13T08:47:18;101052.63;;;6.78;62.46
60061;BME280;45933;51.336;12.612;2022-11-13T08:49:44;101052.72;;;6.81;62.66
60061;BME280;45933;51.336;12.612;2022-11-13T08:52:09;101047.59;;;6.84;62.83
60061;BME280;45933;51.336;12.612;2022-11-13T08:54:34;101048.59;;;6.89;62.84
60061;BME280;45933;51.336;12.612;2022-11-13T08:57:00;101050.53;;;6.98;62.95
60061;BME280;45933;51.336;12.612;2022-11-13T08:59:25;101046.38;;;7.04;62.88
60061;BME280;45933;51.336;12.612;2022-11-13T09:01:51;101045.63;;;7.08;62.59
60061;BME280;45933;51.336;12.612;2022-11-13T09:04:23;101034.59;;;7.17;61.48
60061;BME280;45933;51.336;12.612;2022-11-13T09:06:48;101033.78;;;7.20;61.76
60061;BME280;45933;51.336;12.612;2022-11-13T09:09:13;101034.75;;;7.25;62.13
60061;BME280;45933;51.336;12.612;2022-11-13T09:11:39;101033.13;;;7.28;62.25
60061;BME280;45933;51.336;12.612;2022-11-13T09:14:04;101035.72;;;7.28;61.70
60061;BME280;45933;51.336;12.612;2022-11-13T09:16:29;101031.53;;;7.35;60.81
60061;BME280;45933;51.336;12.612;2022-11-13T09:18:55;101031.59;;;7.38;61.42
60061;BME280;45933;51.336;12.612;2022-11-13T09:21:20;101031.66;;;7.41;61.41
60061;BME280;45933;51.336;12.612;2022-11-13T09:23:45;101025.88;;;7.53;61.64
60061;BME280;45933;51.336;12.612;2022-11-13T09:26:11;101025.19;;;7.62;61.47
60061;BME280;45933;51.336;12.612;2022-11-13T09:28:36;101023.78;;;7.76;61.26
60061;BME280;45933;51.336;12.612;2022-11-13T09:31:05;101031.13;;;7.97;61.57
60061;BME280;45933;51.336;12.612;2022-11-13T09:33:31;101028.75;;;8.09;61.02
60061;BME280;45933;51.336;12.612;2022-11-13T09:35:56;101019.53;;;8.23;60.00
60061;BME280;45933;51.336;12.612;2022-11-13T09:38:22;101030.19;;;8.37;59.89
60061;BME280;45933;51.336;12.612;2022-11-13T09:48:37;101025.13;;;8.95;59.48
60061;BME280;45933;51.336;12.612;2022-11-13T09:51:24;101037.44;;;9.06;58.31
60061;BME280;45933;51.336;12.612;2022-11-13T09:53:52;101033.06;;;9.04;56.53
60061;BME280;45933;51.336;12.612;2022-11-13T09:59:28;101027.91;;;9.07;55.67
60061;BME280;45933;51.336;12.612;2022-11-13T10:02:15;101028.81;;;9.09;55.79
60061;BME280;45933;51.336;12.612;2022-11-13T10:12:45;101017.31;;;8.93;57.37
60061;BME280;45933;51.336;12.612;2022-11-13T10:15:13;101012.09;;;8.92;57.70
60061;BME280;45933;51.336;12.612;2022-11-13T10:17:44;100999.22;;;9.01;57.00
60061;BME280;45933;51.336;12.612;2022-11-13T10:20:20;100990.75;;;9.14;56.90
60061;BME280;45933;51.336;12.612;2022-11-13T10:23:10;100998.84;;;9.34;57.01
60061;BME280;45933;51.336;12.612;2022-11-13T10:25:38;100986.13;;;9.55;56.97
60061;BME280;45933;51.336;12.612;2022-11-13T10:28:31;100983.00;;;9.85;56.66
60061;BME280;45933;51.336;12.612;2022-11-13T10:30:57;100976.91;;;9.82;54.82
60061;BME280;45933;51.336;12.612;2022-11-13T10:33:22;100984.56;;;9.69;53.69
60061;BME280;45933;51.336;12.612;2022-11-13T10:36:11;100985.66;;;9.88;53.75
60061;BME280;45933;51.336;12.612;2022-11-13T10:38:39;100985.53;;;9.76;53.13
60061;BME280;45933;51.336;12.612;2022-11-13T10:41:14;100984.59;;;9.73;53.59
60061;BME280;45933;51.336;12.612;2022-11-13T10:46:26;100963.53;;;9.54;54.23
60061;BME280;45933;51.336;12.612;2022-11-13T10:48:54;100958.31;;;9.51;55.47
60061;BME280;45933;51.336;12.612;2022-11-13T10:51:23;100953.91;;;9.46;55.25
60061;BME280;45933;51.336;12.612;2022-11-13T10:53:50;100949.44;;;9.38;54.88
60061;BME280;45933;51.336;12.612;2022-11-13T10:56:31;100961.72;;;9.49;54.75
60061;BME280;45933;51.336;12.612;2022-11-13T10:59:12;100955.66;;;9.48;54.44
60061;BME280;45933;51.336;12.612;2022-11-13T11:01:38;100948.50;;;9.30;54.74
60061;BME280;45933;51.336;12.612;2022-11-13T11:04:25;100936.28;;;9.26;54.48
60061;BME280;45933;51.336;12.612;2022-11-13T11:06:53;100945.72;;;9.18;54.25
60061;BME280;45933;51.336;12.612;2022-11-13T11:09:22;100934.47;;;9.21;54.33
60061;BME280;45933;51.336;12.612;2022-11-13T11:12:19;100928.63;;;9.37;56.17
60061;BME280;45933;51.336;12.612;2022-11-13T11:14:53;100922.59;;;9.41;56.03
60061;BME280;45933;51.336;12.612;2022-11-13T11:25:53;100905.34;;;10.31;55.75
60061;BME280;45933;51.336;12.612;2022-11-13T11:28:40;100900.41;;;10.63;55.54
60061;BME280;45933;51.336;12.612;2022-11-13T11:31:16;100894.44;;;10.84;53.82
60061;BME280;45933;51.336;12.612;2022-11-13T11:33:49;100896.34;;;11.08;53.02
60061;BME280;45933;51.336;12.612;2022-11-13T11:36:27;100880.75;;;11.28;51.73
60061;BME280;45933;51.336;12.612;2022-11-13T11:45:10;100879.94;;;11.43;51.23
60061;BME280;45933;51.336;12.612;2022-11-13T11:47:38;100876.50;;;11.47;51.24
60061;BME280;45933;51.336;12.612;2022-11-13T11:50:10;100868.63;;;11.44;50.92
60061;BME280;45933;51.336;12.612;2022-11-13T11:55:33;100864.31;;;11.52;50.88
60061;BME280;45933;51.336;12.612;2022-11-13T12:00:50;100857.38;;;11.57;52.10
60061;BME280;45933;51.336;12.612;2022-11-13T12:09:02;100855.75;;;12.45;50.71
60061;BME280;45933;51.336;12.612;2022-11-13T12:11:34;100853.03;;;12.95;50.99
60061;BME280;45933;51.336;12.612;2022-11-13T12:20:02;100842.00;;;14.02;48.10
60061;BME280;45933;51.336;12.612;2022-11-13T12:22:39;100837.50;;;14.18;47.53
60061;BME280;45933;51.336;12.612;2022-11-13T12:25:23;100826.06;;;14.28;47.55
60061;BME280;45933;51.336;12.612;2022-11-13T12:28:01;100821.47;;;14.56;46.88
60061;BME280;45933;51.336;12.612;2022-11-13T12:33:38;100812.66;;;15.33;46.88
60061;BME280;45933;51.336;12.612;2022-11-13T12:36:09;100814.03;;;15.63;45.21
60061;BME280;45933;51.336;12.612;2022-11-13T12:46:32;100820.16;;;16.68;43.46
60061;BME280;45933;51.336;12.612;2022-11-13T12:48:58;100814.22;;;16.57;42.88
60061;BME280;45933;51.336;12.612;2022-11-13T12:51:39;100810.72;;;16.57;43.99
60061;BME280;45933;51.336;12.612;2022-11-13T12:54:08;100808.88;;;16.62;43.05
60061;BME280;45933;51.336;12.612;2022-11-13T12:56:34;100808.63;;;16.76;42.97
60061;BME280;45933;51.336;12.612;2022-11-13T12:59:06;100807.44;;;16.92;42.75
60061;BME280;45933;51.336;12.612;2022-11-13T13:02:14;100798.84;;;17.24;42.36
60061;BME280;45933;51.336;12.612;2022-11-13T13:04:53;100799.81;;;17.60;40.84
60061;BME280;45933;51.336;12.612;2022-11-13T13:07:59;100775.31;;;17.94;43.41
60061;BME280;45933;51.336;12.612;2022-11-13T13:15:57;100765.34;;;18.72;39.31
60061;BME280;45933;51.336;12.612;2022-11-13T13:18:27;100757.53;;;18.98;39.73
60061;BME280;45933;51.336;12.612;2022-11-13T13:23:35;100749.53;;;19.59;40.46
60061;BME280;45933;51.336;12.612;2022-11-13T13:28:31;100740.66;;;20.13;37.56
60061;BME280;45933;51.336;12.612;2022-11-13T13:31:12;100735.06;;;20.47;38.95
60061;BME280;45933;51.336;12.612;2022-11-13T13:34:13;100735.16;;;20.69;37.93
60061;BME280;45933;51.336;12.612;2022-11-13T13:39:54;100722.16;;;21.32;37.07
60061;BME280;45933;51.336;12.612;2022-11-13T13:45:36;100704.63;;;21.28;34.66
60061;BME280;45933;51.336;12.612;2022-11-13T13:48:09;100700.50;;;20.97;34.61
60061;BME280;45933;51.336;12.612;2022-11-13T13:50:39;100701.41;;;20.74;34.98
60061;BME280;45933;51.336;12.612;2022-11-13T13:53:08;100702.19;;;20.28;34.91
60061;BME280;45933;51.336;12.612;2022-11-13T13:55:38;100696.53;;;19.89;35.25
60061;BME280;45933;51.336;12.612;2022-11-13T13:58:11;100699.06;;;19.65;35.88
60061;BME280;45933;51.336;12.612;2022-11-13T14:00:39;100698.69;;;19.21;36.41
60061;BME280;45933;51.336;12.612;2022-11-13T14:03:17;100693.63;;;19.14;37.63
60061;BME280;45933;51.336;12.612;2022-11-13T14:05:43;100693.53;;;18.89;37.76
60061;BME280;45933;51.336;12.612;2022-11-13T14:08:23;100693.34;;;18.95;38.38
60061;BME280;45933;51.336;12.612;2022-11-13T14:10:49;100681.28;;;18.86;37.92
60061;BME280;45933;51.336;12.612;2022-11-13T14:13:33;100679.09;;;19.00;38.90
60061;BME280;45933;51.336;12.612;2022-11-13T14:16:03;100664.16;;;18.99;38.02
60061;BME280;45933;51.336;12.612;2022-11-13T14:18:30;100673.94;;;18.96;38.19
60061;BME280;45933;51.336;12.612;2022-11-13T14:20:57;100666.09;;;18.93;37.78